sensor_id;sensor_type;location;lat;lon;timestamp;temperature;humidity
20366;DHT22;10341;49.894;8.822;2023-03-01T00:04:41;-2.20;99.90
20366;DHT22;10341;49.894;8.822;2023-03-01T00:10:00;-2.20;99.90
20366;DHT22;10341;49.894;8.822;2023-03-01T00:15:20;-2.20;99.90
20366;DHT22;10341;49.894;8.822;2023-03-01T00:20:39;-2.10;99.90
20366;DHT22;10341;49.894;8.822;2023-03-01T00:25:59;-2.10;99.90
20366;DHT22;10341;49.894;8.822;2023-03-01T00:31:21;-2.10;99.90
20366;DHT22;10341;49.894;8.822;2023-03-01T00:36:40;-2.20;99.90
20366;DHT22;10341;49.894;8.822;2023-03-01T00:42:00;-2.30;99.90
20366;DHT22;10341;49.894;8.822;2023-03-01T00:47:20;-2.40;99.90
20366;DHT22;10341;49.894;8.822;2023-03-01T00:52:39;-2.50;99.90
20366;DHT22;10341;49.894;8.822;2023-03-01T00:57:59;-2.50;99.90
20366;DHT22;10341;49.894;8.822;2023-03-01T01:03:19;-2.40;99.90
20366;DHT22;10341;49.894;8.822;2023-03-01T01:08:38;-2.40;99.90
20366;DHT22;10341;49.894;8.822;2023-03-01T01:13:58;-2.60;99.90
20366;DHT22;10341;49.894;8.822;2023-03-01T01:19:17;-2.70;99.90
20366;DHT22;10341;49.894;8.822;2023-03-01T01:24:37;-2.70;99.90
20366;DHT22;10341;49.894;8.822;2023-03-01T01:29:56;-2.70;99.90
20366;DHT22;10341;49.894;8.822;2023-03-01T01:35:16;-2.70;99.90
20366;DHT22;10341;49.894;8.822;2023-03-01T01:40:43;-2.70;99.90
20366;DHT22;10341;49.894;8.822;2023-03-01T01:46:29;-2.70;99.90
20366;DHT22;10341;49.894;8.822;2023-03-01T01:51:53;-2.60;99.90
20366;DHT22;10341;49.894;8.822;2023-03-01T01:57:18;-2.60;99.90
20366;DHT22;10341;49.894;8.822;2023-03-01T02:02:39;-2.60;99.90
20366;DHT22;10341;49.894;8.822;2023-03-01T02:07:59;-2.60;99.90
20366;DHT22;10341;49.894;8.822;2023-03-01T02:13:20;-2.50;99.90
20366;DHT22;10341;49.894;8.822;2023-03-01T02:18:40;-2.40;99.90
20366;DHT22;10341;49.894;8.822;2023-03-01T02:29:54;-2.40;99.90
20366;DHT22;10341;49.894;8.822;2023-03-01T02:35:14;-2.40;99.90
20366;DHT22;10341;49.894;8.822;2023-03-01T02:40:36;-2.40;99.90
20366;DHT22;10341;49.894;8.822;2023-03-01T02:46:02;-2.50;99.90
20366;DHT22;10341;49.894;8.822;2023-03-01T02:51:27;-2.50;99.90
20366;DHT22;10341;49.894;8.822;2023-03-01T02:56:50;-2.60;99.90
20366;DHT22;10341;49.894;8.822;2023-03-01T03:02:25;-2.60;99.90
20366;DHT22;10341;49.894;8.822;2023-03-01T03:08:00;-2.60;99.90
20366;DHT22;10341;49.894;8.822;2023-03-01T03:13:20;-2.50;99.90
20366;DHT22;10341;49.894;8.822;2023-03-01T03:18:41;-2.50;99.90
20366;DHT22;10341;49.894;8.822;2023-03-01T03:24:01;-2.50;99.90
20366;DHT22;10341;49.894;8.822;2023-03-01T03:29:20;-2.50;99.90
20366;DHT22;10341;49.894;8.822;2023-03-01T03:34:39;-2.50;99.90
20366;DHT22;10341;49.894;8.822;2023-03-01T03:39:58;-2.50;99.90
20366;DHT22;10341;49.894;8.822;2023-03-01T03:45:18;-2.50;99.90
20366;DHT22;10341;49.894;8.822;2023-03-01T03:50:39;-2.40;99.90
20366;DHT22;10341;49.894;8.822;2023-03-01T03:55:58;-2.40;99.90
20366;DHT22;10341;49.894;8.822;2023-03-01T04:01:18;-2.30;99.90
20366;DHT22;10341;49.894;8.822;2023-03-01T04:06:37;-2.20;99.90
20366;DHT22;10341;49.894;8.822;2023-03-01T04:11:56;-2.10;99.90
20366;DHT22;10341;49.894;8.822;2023-03-01T04:17:16;-2.00;99.90
20366;DHT22;10341;49.894;8.822;2023-03-01T04:22:36;-1.90;99.90
20366;DHT22;10341;49.894;8.822;2023-03-01T04:27:55;-1.80;99.90
20366;DHT22;10341;49.894;8.822;2023-03-01T04:33:15;-1.80;99.90
20366;DHT22;10341;49.894;8.822;2023-03-01T04:38:36;-1.70;99.90
20366;DHT22;10341;49.894;8.822;2023-03-01T04:43:56;-1.70;99.90
20366;DHT22;10341;49.894;8.822;2023-03-01T04:49:15;-1.70;99.90
20366;DHT22;10341;49.894;8.822;2023-03-01T04:54:36;-1.70;99.90
20366;DHT22;10341;49.894;8.822;2023-03-01T04:59:55;-1.60;99.90
20366;DHT22;10341;49.894;8.822;2023-03-01T05:05:15;-1.50;99.90
20366;DHT22;10341;49.894;8.822;2023-03-01T05:10:35;-1.50;99.90
20366;DHT22;10341;49.894;8.822;2023-03-01T05:15:57;-1.50;99.90
20366;DHT22;10341;49.894;8.822;2023-03-01T05:21:17;-1.50;99.90
20366;DHT22;10341;49.894;8.822;2023-03-01T05:26:36;-1.50;99.90
20366;DHT22;10341;49.894;8.822;2023-03-01T05:32:01;-1.50;99.90
20366;DHT22;10341;49.894;8.822;2023-03-01T05:37:20;-1.50;99.90
20366;DHT22;10341;49.894;8.822;2023-03-01T05:42:41;-1.50;99.90
20366;DHT22;10341;49.894;8.822;2023-03-01T05:48:00;-1.50;99.90
20366;DHT22;10341;49.894;8.822;2023-03-01T05:53:20;-1.60;99.90
20366;DHT22;10341;49.894;8.822;2023-03-01T05:58:42;-1.60;99.90
20366;DHT22;10341;49.894;8.822;2023-03-01T06:04:03;-1.60;99.90
20366;DHT22;10341;49.894;8.822;2023-03-01T06:09:22;-1.60;99.90
20366;DHT22;10341;49.894;8.822;2023-03-01T06:14:41;-1.60;99.90
20366;DHT22;10341;49.894;8.822;2023-03-01T06:20:01;-1.60;99.90
20366;DHT22;10341;49.894;8.822;2023-03-01T06:25:22;-1.50;99.90
20366;DHT22;10341;49.894;8.822;2023-03-01T06:30:41;-1.40;99.90
20366;DHT22;10341;49.894;8.822;2023-03-01T06:36:01;-1.20;99.90
20366;DHT22;10341;49.894;8.822;2023-03-01T06:41:21;-1.00;99.90
20366;DHT22;10341;49.894;8.822;2023-03-01T06:46:40;-0.80;99.90
20366;DHT22;10341;49.894;8.822;2023-03-01T06:51:59;-0.50;99.90
20366;DHT22;10341;49.894;8.822;2023-03-01T06:57:19;-0.20;99.90
20366;DHT22;10341;49.894;8.822;2023-03-01T07:02:38;0.10;99.90
20366;DHT22;10341;49.894;8.822;2023-03-01T07:07:58;0.40;99.90
20366;DHT22;10341;49.894;8.822;2023-03-01T07:13:17;0.60;99.90
20366;DHT22;10341;49.894;8.822;2023-03-01T07:18:37;0.90;99.90
20366;DHT22;10341;49.894;8.822;2023-03-01T07:23:57;1.30;99.90
20366;DHT22;10341;49.894;8.822;2023-03-01T07:29:16;1.90;99.90
20366;DHT22;10341;49.894;8.822;2023-03-01T07:34:36;2.70;99.90
20366;DHT22;10341;49.894;8.822;2023-03-01T07:39:55;3.60;99.90
20366;DHT22;10341;49.894;8.822;2023-03-01T07:45:15;4.20;99.90
20366;DHT22;10341;49.894;8.822;2023-03-01T07:50:35;4.90;99.90
20366;DHT22;10341;49.894;8.822;2023-03-01T07:56:09;5.30;99.90
20366;DHT22;10341;49.894;8.822;2023-03-01T08:01:28;5.50;99.90
20366;DHT22;10341;49.894;8.822;2023-03-01T08:06:48;5.50;99.90
20366;DHT22;10341;49.894;8.822;2023-03-01T08:12:07;6.30;99.90
20366;DHT22;10341;49.894;8.822;2023-03-01T08:17:26;6.60;99.90
20366;DHT22;10341;49.894;8.822;2023-03-01T08:22:46;6.90;99.90
20366;DHT22;10341;49.894;8.822;2023-03-01T08:28:06;7.50;99.80
20366;DHT22;10341;49.894;8.822;2023-03-01T08:33:25;7.80;99.20
20366;DHT22;10341;49.894;8.822;2023-03-01T08:38:45;8.80;97.50
20366;DHT22;10341;49.894;8.822;2023-03-01T08:44:05;10.00;95.70
20366;DHT22;10341;49.894;8.822;2023-03-01T08:49:24;11.00;93.10
20366;DHT22;10341;49.894;8.822;2023-03-01T08:54:44;11.90;91.00
20366;DHT22;10341;49.894;8.822;2023-03-01T09:00:03;12.30;89.00
20366;DHT22;10341;49.894;8.822;2023-03-01T09:05:27;13.00;87.40
20366;DHT22;10341;49.894;8.822;2023-03-01T09:10:47;13.60;84.20
20366;DHT22;10341;49.894;8.822;2023-03-01T09:16:07;14.00;80.40
20366;DHT22;10341;49.894;8.822;2023-03-01T09:21:26;14.90;78.80
20366;DHT22;10341;49.894;8.822;2023-03-01T09:26:46;14.90;77.40
20366;DHT22;10341;49.894;8.822;2023-03-01T09:32:06;15.00;77.30
20366;DHT22;10341;49.894;8.822;2023-03-01T09:37:27;15.60;74.80
20366;DHT22;10341;49.894;8.822;2023-03-01T09:42:55;15.30;72.50
20366;DHT22;10341;49.894;8.822;2023-03-01T09:48:19;15.70;71.90
20366;DHT22;10341;49.894;8.822;2023-03-01T09:53:41;16.40;69.70
20366;DHT22;10341;49.894;8.822;2023-03-01T10:04:41;16.50;68.10
20366;DHT22;10341;49.894;8.822;2023-03-01T10:10:08;17.30;65.90
20366;DHT22;10341;49.894;8.822;2023-03-01T10:15:39;17.20;66.10
20366;DHT22;10341;49.894;8.822;2023-03-01T10:21:03;15.90;67.10
20366;DHT22;10341;49.894;8.822;2023-03-01T10:26:38;17.10;64.30
20366;DHT22;10341;49.894;8.822;2023-03-01T10:31:59;17.70;64.10
20366;DHT22;10341;49.894;8.822;2023-03-01T10:37:20;18.00;63.00
20366;DHT22;10341;49.894;8.822;2023-03-01T10:42:49;18.10;61.90
20366;DHT22;10341;49.894;8.822;2023-03-01T10:48:15;18.40;60.00
20366;DHT22;10341;49.894;8.822;2023-03-01T10:53:44;19.20;60.10
20366;DHT22;10341;49.894;8.822;2023-03-01T10:59:22;18.80;58.90
20366;DHT22;10341;49.894;8.822;2023-03-01T11:05:21;19.30;59.00
20366;DHT22;10341;49.894;8.822;2023-03-01T11:10:42;19.60;57.90
20366;DHT22;10341;49.894;8.822;2023-03-01T11:16:05;17.80;59.90
20366;DHT22;10341;49.894;8.822;2023-03-01T11:21:28;19.10;58.40
20366;DHT22;10341;49.894;8.822;2023-03-01T11:26:54;20.00;56.40
20366;DHT22;10341;49.894;8.822;2023-03-01T11:32:14;19.90;56.20
20366;DHT22;10341;49.894;8.822;2023-03-01T11:43:32;19.20;55.90
20366;DHT22;10341;49.894;8.822;2023-03-01T12:00:44;19.00;56.50
20366;DHT22;10341;49.894;8.822;2023-03-01T12:06:34;19.70;54.60
20366;DHT22;10341;49.894;8.822;2023-03-01T12:18:03;19.70;54.10
20366;DHT22;10341;49.894;8.822;2023-03-01T12:50:59;19.30;55.40
20366;DHT22;10341;49.894;8.822;2023-03-01T12:56:23;19.10;55.20
20366;DHT22;10341;49.894;8.822;2023-03-01T13:02:23;19.50;55.20
20366;DHT22;10341;49.894;8.822;2023-03-01T13:07:58;18.10;56.70
20366;DHT22;10341;49.894;8.822;2023-03-01T13:13:25;19.30;55.60
20366;DHT22;10341;49.894;8.822;2023-03-01T13:18:44;19.90;54.90
20366;DHT22;10341;49.894;8.822;2023-03-01T13:24:04;20.50;52.60
20366;DHT22;10341;49.894;8.822;2023-03-01T13:29:54;20.40;53.50
20366;DHT22;10341;49.894;8.822;2023-03-01T13:46:20;20.20;53.20
20366;DHT22;10341;49.894;8.822;2023-03-01T13:51:40;19.70;53.40
20366;DHT22;10341;49.894;8.822;2023-03-01T13:57:01;19.80;54.00
20366;DHT22;10341;49.894;8.822;2023-03-01T14:02:21;19.90;52.80
20366;DHT22;10341;49.894;8.822;2023-03-01T14:07:40;19.20;53.60
20366;DHT22;10341;49.894;8.822;2023-03-01T14:14:01;19.90;53.50
20366;DHT22;10341;49.894;8.822;2023-03-01T14:19:24;19.30;53.40
20366;DHT22;10341;49.894;8.822;2023-03-01T14:24:48;18.80;54.20
20366;DHT22;10341;49.894;8.822;2023-03-01T14:30:23;18.80;54.50
20366;DHT22;10341;49.894;8.822;2023-03-01T14:35:52;18.10;54.60
20366;DHT22;10341;49.894;8.822;2023-03-01T14:41:18;17.00;56.60
20366;DHT22;10341;49.894;8.822;2023-03-01T14:46:40;16.10;58.90
20366;DHT22;10341;49.894;8.822;2023-03-01T14:52:04;14.90;61.30
20366;DHT22;10341;49.894;8.822;2023-03-01T14:57:26;13.60;64.00
20366;DHT22;10341;49.894;8.822;2023-03-01T15:02:48;12.30;66.50
20366;DHT22;10341;49.894;8.822;2023-03-01T15:08:16;11.30;70.30
20366;DHT22;10341;49.894;8.822;2023-03-01T15:13:36;10.90;72.80
20366;DHT22;10341;49.894;8.822;2023-03-01T15:19:05;10.40;74.00
20366;DHT22;10341;49.894;8.822;2023-03-01T15:24:25;10.20;74.80
20366;DHT22;10341;49.894;8.822;2023-03-01T15:35:38;9.80;77.00
20366;DHT22;10341;49.894;8.822;2023-03-01T15:41:00;9.60;78.00
20366;DHT22;10341;49.894;8.822;2023-03-01T15:46:44;9.50;78.40
20366;DHT22;10341;49.894;8.822;2023-03-01T15:52:10;9.30;79.20
20366;DHT22;10341;49.894;8.822;2023-03-01T15:57:31;9.10;79.70
20366;DHT22;10341;49.894;8.822;2023-03-01T16:02:50;9.00;80.70
20366;DHT22;10341;49.894;8.822;2023-03-01T16:08:10;8.70;81.40
20366;DHT22;10341;49.894;8.822;2023-03-01T16:13:30;8.60;82.40
20366;DHT22;10341;49.894;8.822;2023-03-01T16:18:50;8.40;83.40
20366;DHT22;10341;49.894;8.822;2023-03-01T16:24:10;8.20;84.40
20366;DHT22;10341;49.894;8.822;2023-03-01T16:29:30;8.00;85.10
20366;DHT22;10341;49.894;8.822;2023-03-01T16:34:49;7.80;85.70
20366;DHT22;10341;49.894;8.822;2023-03-01T16:40:24;7.60;87.50
20366;DHT22;10341;49.894;8.822;2023-03-01T16:45:45;7.30;88.30
20366;DHT22;10341;49.894;8.822;2023-03-01T16:51:05;7.20;89.80
20366;DHT22;10341;49.894;8.822;2023-03-01T16:56:26;6.90;90.40
20366;DHT22;10341;49.894;8.822;2023-03-01T17:01:45;6.80;91.10
20366;DHT22;10341;49.894;8.822;2023-03-01T17:07:06;6.60;92.10
20366;DHT22;10341;49.894;8.822;2023-03-01T17:12:26;6.40;92.50
20366;DHT22;10341;49.894;8.822;2023-03-01T17:17:46;6.20;93.10
20366;DHT22;10341;49.894;8.822;2023-03-01T17:23:09;6.00;93.90
20366;DHT22;10341;49.894;8.822;2023-03-01T17:28:30;5.80;94.60
20366;DHT22;10341;49.894;8.822;2023-03-01T17:33:51;5.70;95.10
20366;DHT22;10341;49.894;8.822;2023-03-01T17:39:10;5.50;96.10
20366;DHT22;10341;49.894;8.822;2023-03-01T17:44:31;5.30;96.70
20366;DHT22;10341;49.894;8.822;2023-03-01T17:49:51;5.10;97.40
20366;DHT22;10341;49.894;8.822;2023-03-01T17:55:11;5.00;97.90
20366;DHT22;10341;49.894;8.822;2023-03-01T18:00:31;5.00;98.30
20366;DHT22;10341;49.894;8.822;2023-03-01T18:05:51;4.90;98.80
20366;DHT22;10341;49.894;8.822;2023-03-01T18:11:14;4.80;99.00
20366;DHT22;10341;49.894;8.822;2023-03-01T18:16:33;4.70;99.40
20366;DHT22;10341;49.894;8.822;2023-03-01T18:21:53;4.60;99.90
20366;DHT22;10341;49.894;8.822;2023-03-01T18:27:12;4.60;99.90
20366;DHT22;10341;49.894;8.822;2023-03-01T18:32:32;4.50;99.90
20366;DHT22;10341;49.894;8.822;2023-03-01T18:37:51;4.50;99.90
20366;DHT22;10341;49.894;8.822;2023-03-01T18:43:11;4.40;99.90
20366;DHT22;10341;49.894;8.822;2023-03-01T18:48:31;4.20;99.90
20366;DHT22;10341;49.894;8.822;2023-03-01T18:53:51;4.10;99.90
20366;DHT22;10341;49.894;8.822;2023-03-01T18:59:11;4.00;99.90
20366;DHT22;10341;49.894;8.822;2023-03-01T19:04:30;3.90;99.90
20366;DHT22;10341;49.894;8.822;2023-03-01T19:09:50;3.90;99.90
20366;DHT22;10341;49.894;8.822;2023-03-01T19:15:10;3.80;99.90
20366;DHT22;10341;49.894;8.822;2023-03-01T19:20:30;3.70;99.90
20366;DHT22;10341;49.894;8.822;2023-03-01T19:25:50;3.50;99.90
20366;DHT22;10341;49.894;8.822;2023-03-01T19:31:11;3.40;99.90
20366;DHT22;10341;49.894;8.822;2023-03-01T19:36:31;3.30;99.90
20366;DHT22;10341;49.894;8.822;2023-03-01T19:41:51;3.20;99.90
20366;DHT22;10341;49.894;8.822;2023-03-01T19:47:10;3.10;99.90
20366;DHT22;10341;49.894;8.822;2023-03-01T19:52:30;3.00;99.90
20366;DHT22;10341;49.894;8.822;2023-03-01T19:57:50;2.90;99.90
20366;DHT22;10341;49.894;8.822;2023-03-01T20:03:09;2.80;99.90
20366;DHT22;10341;49.894;8.822;2023-03-01T20:08:30;2.80;99.90
20366;DHT22;10341;49.894;8.822;2023-03-01T20:13:50;2.60;99.90
20366;DHT22;10341;49.894;8.822;2023-03-01T20:19:10;2.40;99.90
20366;DHT22;10341;49.894;8.822;2023-03-01T20:24:29;2.30;99.90
20366;DHT22;10341;49.894;8.822;2023-03-01T20:29:52;2.20;99.90
20366;DHT22;10341;49.894;8.822;2023-03-01T20:35:11;2.10;99.90
20366;DHT22;10341;49.894;8.822;2023-03-01T20:40:31;2.00;99.90
20366;DHT22;10341;49.894;8.822;2023-03-01T20:45:51;1.80;99.90
20366;DHT22;10341;49.894;8.822;2023-03-01T20:51:12;1.70;99.90
20366;DHT22;10341;49.894;8.822;2023-03-01T20:56:31;1.60;99.90
20366;DHT22;10341;49.894;8.822;2023-03-01T21:01:54;1.50;99.90
20366;DHT22;10341;49.894;8.822;2023-03-01T21:07:13;1.40;99.90
20366;DHT22;10341;49.894;8.822;2023-03-01T21:12:33;1.40;99.90
20366;DHT22;10341;49.894;8.822;2023-03-01T21:17:52;1.30;99.90
20366;DHT22;10341;49.894;8.822;2023-03-01T21:23:12;1.40;99.90
20366;DHT22;10341;49.894;8.822;2023-03-01T21:28:32;1.40;99.90
20366;DHT22;10341;49.894;8.822;2023-03-01T21:33:54;1.40;99.90
20366;DHT22;10341;49.894;8.822;2023-03-01T21:39:13;1.30;99.90
20366;DHT22;10341;49.894;8.822;2023-03-01T21:44:33;1.40;99.90
20366;DHT22;10341;49.894;8.822;2023-03-01T21:49:52;1.30;99.90
20366;DHT22;10341;49.894;8.822;2023-03-01T21:55:11;1.20;99.90
20366;DHT22;10341;49.894;8.822;2023-03-01T22:00:31;1.10;99.90
20366;DHT22;10341;49.894;8.822;2023-03-01T22:05:56;1.10;99.90
20366;DHT22;10341;49.894;8.822;2023-03-01T22:11:17;1.00;99.90
20366;DHT22;10341;49.894;8.822;2023-03-01T22:16:39;1.00;99.90
20366;DHT22;10341;49.894;8.822;2023-03-01T22:21:59;1.00;99.90
20366;DHT22;10341;49.894;8.822;2023-03-01T22:27:19;1.10;99.90
20366;DHT22;10341;49.894;8.822;2023-03-01T22:32:39;1.00;99.90
20366;DHT22;10341;49.894;8.822;2023-03-01T22:37:58;1.10;99.90
20366;DHT22;10341;49.894;8.822;2023-03-01T22:43:18;1.00;99.90
20366;DHT22;10341;49.894;8.822;2023-03-01T22:48:37;1.10;99.90
20366;DHT22;10341;49.894;8.822;2023-03-01T22:53:56;1.00;99.90
20366;DHT22;10341;49.894;8.822;2023-03-01T22:59:17;1.00;99.90
20366;DHT22;10341;49.894;8.822;2023-03-01T23:04:37;1.10;99.90
20366;DHT22;10341;49.894;8.822;2023-03-01T23:09:56;1.00;99.90
20366;DHT22;10341;49.894;8.822;2023-03-01T23:15:20;0.90;99.90
20366;DHT22;10341;49.894;8.822;2023-03-01T23:20:39;0.90;99.90
20366;DHT22;10341;49.894;8.822;2023-03-01T23:25:58;0.90;99.90
20366;DHT22;10341;49.894;8.822;2023-03-01T23:31:18;0.80;99.90
20366;DHT22;10341;49.894;8.822;2023-03-01T23:36:38;0.70;99.90
20366;DHT22;10341;49.894;8.822;2023-03-01T23:42:03;0.70;99.90
20366;DHT22;10341;49.894;8.822;2023-03-01T23:47:22;0.60;99.90
20366;DHT22;10341;49.894;8.822;2023-03-01T23:52:42;0.50;99.90
20366;DHT22;10341;49.894;8.822;2023-03-01T23:58:01;0.40;99.90
